createdAt,value
2018-05-14T00:00:55.938Z,33.83
2018-05-14T00:03:23.514Z,31.77
2018-05-14T00:05:51.056Z,32.70
2018-05-14T00:08:18.618Z,35.70
2018-05-14T00:10:46.142Z,35.53
2018-05-14T00:13:13.694Z,35.90
2018-05-14T00:15:41.246Z,36.17
2018-05-14T00:18:08.853Z,34.87
2018-05-14T00:20:36.414Z,36.63
2018-05-14T00:23:03.972Z,36.43
2018-05-14T00:25:31.530Z,42.40
2018-05-14T00:27:59.082Z,39.43
2018-05-14T00:30:26.638Z,41.03
2018-05-14T00:32:54.162Z,41.87
2018-05-14T00:35:21.714Z,40.40
2018-05-14T00:37:49.331Z,39.23
2018-05-14T00:40:16.894Z,39.65
2018-05-14T00:42:44.452Z,38.40
2018-05-14T00:45:12.250Z,41.13
2018-05-14T00:47:39.776Z,37.38
2018-05-14T00:50:07.437Z,37.97
2018-05-14T00:52:35.797Z,40.28
2018-05-14T00:55:15.048Z,39.10
2018-05-14T00:57:42.582Z,42.55
2018-05-14T01:00:10.165Z,38.65
2018-05-14T01:02:37.713Z,35.40
2018-05-14T01:05:05.798Z,35.60
2018-05-14T01:07:33.368Z,32.43
2018-05-14T01:10:00.893Z,34.20
2018-05-14T01:12:28.493Z,33.73
2018-05-14T01:14:56.046Z,33.80
2018-05-14T01:17:23.630Z,34.87
2018-05-14T01:19:51.232Z,34.20
2018-05-14T01:22:18.817Z,34.28
2018-05-14T01:24:52.112Z,29.92
2018-05-14T01:27:19.663Z,32.27
2018-05-14T01:29:47.189Z,32.00
2018-05-14T01:32:14.763Z,31.12
2018-05-14T01:34:42.361Z,31.57
2018-05-14T01:37:09.898Z,30.63
2018-05-14T01:39:37.572Z,29.93
2018-05-14T01:42:05.919Z,29.23
2018-05-14T01:44:33.495Z,27.10
2018-05-14T01:47:01.027Z,27.40
2018-05-14T01:49:28.585Z,27.90
2018-05-14T01:51:56.131Z,26.33
2018-05-14T01:54:23.686Z,29.07
2018-05-14T01:56:51.239Z,27.60
2018-05-14T01:59:18.867Z,26.43
2018-05-14T02:01:46.419Z,28.73
2018-05-14T02:04:13.993Z,27.30
2018-05-14T02:06:41.524Z,28.83
2018-05-14T02:09:09.078Z,30.17
2018-05-14T02:11:36.602Z,31.00
2018-05-14T02:14:04.150Z,26.90
2018-05-14T02:16:31.732Z,31.00
2018-05-14T02:18:59.281Z,28.97
2018-05-14T02:21:26.840Z,31.00
2018-05-14T02:23:54.382Z,30.03
2018-05-14T02:26:21.937Z,34.53
2018-05-14T02:28:49.465Z,32.27
2018-05-14T02:31:17.045Z,31.17
2018-05-14T02:33:44.597Z,25.77
2018-05-14T02:36:12.171Z,30.90
2018-05-14T02:38:39.725Z,29.97
2018-05-14T02:41:07.305Z,31.53
2018-05-14T02:43:34.939Z,28.40
2018-05-14T02:46:02.505Z,27.07
2018-05-14T02:48:30.031Z,28.90
2018-05-14T02:50:57.617Z,29.20
2018-05-14T02:53:25.325Z,31.03
2018-05-14T02:55:52.838Z,30.90
2018-05-14T02:58:20.420Z,30.25
2018-05-14T03:00:47.957Z,27.63
2018-05-14T03:03:15.619Z,25.93
2018-05-14T03:05:43.150Z,23.03
2018-05-14T03:08:10.702Z,25.25
2018-05-14T03:10:38.254Z,24.93
2018-05-14T03:13:06.382Z,21.85
2018-05-14T03:15:34.134Z,22.97
2018-05-14T03:18:01.911Z,22.13
2018-05-14T03:20:29.477Z,20.67
2018-05-14T03:22:57.046Z,21.90
2018-05-14T03:25:24.577Z,21.50
2018-05-14T03:27:52.239Z,21.63
2018-05-14T03:30:19.784Z,20.80
2018-05-14T03:32:47.350Z,18.33
2018-05-14T03:35:14.879Z,17.67
2018-05-14T03:37:42.478Z,20.67
2018-05-14T03:40:10.007Z,18.58
2018-05-14T03:42:37.597Z,16.87
2018-05-14T03:45:05.157Z,16.83
2018-05-14T03:47:32.686Z,15.83
2018-05-14T03:50:00.375Z,16.87
2018-05-14T03:52:27.940Z,14.83
2018-05-14T03:54:55.491Z,15.00
2018-05-14T03:57:23.040Z,15.63
2018-05-14T04:00:02.501Z,14.13
2018-05-14T04:02:41.978Z,15.05
2018-05-14T04:05:17.479Z,14.20
2018-05-14T04:07:45.002Z,15.32
2018-05-14T04:10:12.607Z,13.63
2018-05-14T04:12:43.920Z,12.40
2018-05-14T04:15:11.511Z,12.93
2018-05-14T04:17:39.190Z,11.77
2018-05-14T04:20:06.764Z,10.83
2018-05-14T04:22:34.316Z,11.90
2018-05-14T04:25:01.886Z,10.63
2018-05-14T04:27:29.409Z,12.37
2018-05-14T04:29:56.973Z,12.43
2018-05-14T04:32:24.631Z,13.20
2018-05-14T04:34:52.377Z,13.30
2018-05-14T04:37:19.950Z,14.60
2018-05-14T04:39:48.213Z,12.93
2018-05-14T04:42:15.788Z,12.77
2018-05-14T04:44:43.481Z,13.13
2018-05-14T04:47:11.096Z,11.60
2018-05-14T04:49:39.657Z,13.73
2018-05-14T04:52:07.289Z,13.27
2018-05-14T04:54:34.846Z,13.83
2018-05-14T04:57:02.418Z,14.23
2018-05-14T04:59:29.953Z,17.33
2018-05-14T05:01:57.606Z,16.98
2018-05-14T05:04:25.163Z,18.10
2018-05-14T05:06:52.711Z,18.17
2018-05-14T05:09:20.380Z,20.10
2018-05-14T05:11:47.912Z,20.65
2018-05-14T05:14:15.563Z,21.50
2018-05-14T05:16:43.267Z,19.37
2018-05-14T05:19:12.079Z,19.93
2018-05-14T05:21:39.770Z,21.83
2018-05-14T05:24:07.349Z,21.60
2018-05-14T05:26:35.244Z,21.83
2018-05-14T05:29:02.805Z,21.53
2018-05-14T05:31:30.358Z,21.90
2018-05-14T05:33:58.032Z,21.97
2018-05-14T05:36:25.584Z,24.23
2018-05-14T05:38:53.242Z,25.63
2018-05-14T05:41:20.765Z,24.90
2018-05-14T05:43:49.386Z,25.63
2018-05-14T05:46:16.991Z,24.83
2018-05-14T05:48:44.521Z,26.83
2018-05-14T05:51:12.167Z,28.10
2018-05-14T05:53:39.899Z,30.10
2018-05-14T05:56:07.454Z,28.13
2018-05-14T05:58:35.017Z,30.07
2018-05-14T06:01:02.584Z,33.17
2018-05-14T06:03:30.109Z,29.60
2018-05-14T06:05:57.729Z,30.03
2018-05-14T06:08:25.287Z,30.33
2018-05-14T06:10:52.959Z,28.57
2018-05-14T06:13:20.522Z,35.60
2018-05-14T06:15:48.171Z,32.65
2018-05-14T06:18:17.185Z,29.77
2018-05-14T06:20:44.723Z,29.87
2018-05-14T06:23:12.307Z,30.80
2018-05-14T06:25:39.834Z,31.63
2018-05-14T06:28:07.406Z,33.33
2018-05-14T06:30:34.932Z,29.43
2018-05-14T06:33:02.529Z,30.13
2018-05-14T06:35:30.093Z,31.17
2018-05-14T06:37:57.640Z,30.63
2018-05-14T06:40:25.190Z,29.20
2018-05-14T06:42:52.758Z,29.67
2018-05-14T06:45:20.294Z,29.50
2018-05-14T06:47:47.848Z,29.50
2018-05-14T06:50:15.498Z,27.98
2018-05-14T06:52:43.052Z,27.77
2018-05-14T06:55:10.647Z,29.50
2018-05-14T06:57:38.206Z,28.10
2018-05-14T07:00:05.786Z,29.77
2018-05-14T07:02:33.338Z,27.13
2018-05-14T07:05:00.889Z,28.40
2018-05-14T07:07:28.417Z,28.90
2018-05-14T07:09:55.976Z,30.35
2018-05-14T07:12:23.499Z,27.25
2018-05-14T07:14:51.049Z,28.07
2018-05-14T07:17:18.697Z,27.17
2018-05-14T07:19:46.278Z,29.17
2018-05-14T07:22:13.827Z,28.30
2018-05-14T07:24:41.552Z,29.07
2018-05-14T07:27:09.034Z,27.87
2018-05-14T07:29:36.591Z,28.57
2018-05-14T07:32:04.139Z,28.33
2018-05-14T07:34:31.817Z,29.80
2018-05-14T07:36:59.346Z,28.40
2018-05-14T07:39:26.940Z,27.30
2018-05-14T07:41:54.496Z,28.77
2018-05-14T07:44:22.058Z,26.93
2018-05-14T07:46:49.625Z,26.73
2018-05-14T07:49:17.169Z,28.43
2018-05-14T07:51:44.736Z,36.10
2018-05-14T07:54:12.302Z,29.97
2018-05-14T07:56:39.965Z,26.40
2018-05-14T07:59:07.581Z,46.33
2018-05-14T08:01:35.177Z,37.10
2018-05-14T08:04:02.735Z,31.67
2018-05-14T08:06:30.319Z,28.57
2018-05-14T08:08:57.923Z,30.93
2018-05-14T08:11:25.474Z,29.00
2018-05-14T08:13:53.078Z,30.98
2018-05-14T08:16:20.629Z,29.77
2018-05-14T08:18:49.230Z,28.05
2018-05-14T08:21:16.814Z,29.30
2018-05-14T08:23:44.362Z,26.57
2018-05-14T08:26:11.935Z,25.60
2018-05-14T08:28:39.559Z,26.23
2018-05-14T08:31:07.091Z,26.57
2018-05-14T08:33:34.697Z,26.67
2018-05-14T08:36:02.217Z,25.23
2018-05-14T08:38:29.773Z,26.33
2018-05-14T08:40:57.305Z,23.50
2018-05-14T08:43:24.881Z,24.37
2018-05-14T08:45:52.430Z,23.17
2018-05-14T08:48:20.010Z,26.33
2018-05-14T08:50:47.604Z,25.90
2018-05-14T08:53:15.163Z,25.83
2018-05-14T08:55:42.717Z,24.07
2018-05-14T08:58:10.342Z,23.90
2018-05-14T09:00:37.997Z,23.10
2018-05-14T09:03:05.493Z,24.10
2018-05-14T09:05:33.043Z,23.47
2018-05-14T09:08:00.576Z,23.77
2018-05-14T09:10:28.244Z,24.30
2018-05-14T09:12:55.835Z,21.90
2018-05-14T09:15:23.497Z,22.17
2018-05-14T09:17:51.031Z,22.23
2018-05-14T09:20:18.610Z,24.30
2018-05-14T09:22:46.137Z,23.03
2018-05-14T09:25:13.713Z,22.93
2018-05-14T09:27:41.242Z,23.50
2018-05-14T09:30:08.792Z,24.33
2018-05-14T09:32:36.322Z,21.93
2018-05-14T09:35:03.927Z,24.02
2018-05-14T09:37:31.544Z,21.10
2018-05-14T09:39:59.079Z,22.33
2018-05-14T09:42:26.756Z,19.50
2018-05-14T09:44:54.416Z,21.17
2018-05-14T09:47:21.985Z,21.23
2018-05-14T09:49:49.534Z,19.47
2018-05-14T09:52:17.095Z,21.37
2018-05-14T09:54:44.762Z,20.73
2018-05-14T09:57:12.823Z,22.10
2018-05-14T09:59:41.014Z,21.50
2018-05-14T10:02:08.716Z,21.33
2018-05-14T10:04:36.591Z,21.03
2018-05-14T10:07:04.399Z,21.95
2018-05-14T10:09:32.373Z,21.48
2018-05-14T10:12:00.225Z,21.35
2018-05-14T10:14:27.761Z,20.80
2018-05-14T10:16:55.351Z,22.03
2018-05-14T10:19:23.638Z,21.33
2018-05-14T10:21:51.598Z,21.87
2018-05-14T10:24:19.170Z,20.20
2018-05-14T10:26:46.850Z,21.83
2018-05-14T10:29:15.300Z,20.13
2018-05-14T10:31:42.973Z,20.93
2018-05-14T10:34:11.448Z,22.27
2018-05-14T10:36:39.274Z,22.40
2018-05-14T10:39:06.855Z,21.40
2018-05-14T10:41:35.469Z,21.20
2018-05-14T10:44:03.524Z,19.27
2018-05-14T10:46:31.613Z,18.83
2018-05-14T10:48:59.368Z,16.70
2018-05-14T10:51:27.315Z,17.43
2018-05-14T10:53:57.490Z,16.33
2018-05-14T10:56:25.173Z,16.57
2018-05-14T10:58:52.768Z,15.60
2018-05-14T11:01:20.331Z,16.40
2018-05-14T11:03:47.877Z,15.10
2018-05-14T11:06:15.528Z,12.98
2018-05-14T11:08:43.057Z,14.97
2018-05-14T11:11:10.681Z,13.07
2018-05-14T11:13:38.336Z,12.13
2018-05-14T11:16:05.995Z,10.60
2018-05-14T11:18:33.559Z,10.90
2018-05-14T11:21:01.196Z,14.03
2018-05-14T11:23:28.721Z,16.20
2018-05-14T11:25:56.266Z,21.43
2018-05-14T11:28:23.799Z,20.63
2018-05-14T11:30:51.659Z,20.88
2018-05-14T11:33:19.323Z,20.43
2018-05-14T11:35:46.881Z,19.57
2018-05-14T11:38:16.307Z,18.73
2018-05-14T11:40:43.962Z,21.67
2018-05-14T11:43:11.612Z,20.53
2018-05-14T11:45:39.149Z,22.37
2018-05-14T11:48:06.719Z,23.37
2018-05-14T11:50:34.245Z,24.60
2018-05-14T11:53:01.822Z,23.15
2018-05-14T11:55:29.405Z,22.37
2018-05-14T11:57:57.078Z,22.97
2018-05-14T12:00:24.831Z,23.00
2018-05-14T12:02:52.591Z,23.97
2018-05-14T12:05:20.052Z,24.70
2018-05-14T12:07:47.684Z,24.97
2018-05-14T12:10:15.242Z,22.27
2018-05-14T12:12:42.784Z,24.50
2018-05-14T12:15:10.342Z,23.37
2018-05-14T12:17:37.875Z,24.47
2018-05-14T12:20:05.512Z,24.40
2018-05-14T12:22:33.054Z,23.33
2018-05-14T12:25:00.601Z,22.73
2018-05-14T12:27:28.133Z,23.70
2018-05-14T12:29:55.704Z,24.40
2018-05-14T12:32:25.362Z,24.60
2018-05-14T12:34:52.985Z,24.87
2018-05-14T12:37:20.538Z,23.93
2018-05-14T12:39:48.166Z,24.80
2018-05-14T12:42:17.132Z,24.93
2018-05-14T12:44:44.801Z,24.53
2018-05-14T12:47:14.289Z,24.63
2018-05-14T12:49:41.875Z,20.65
2018-05-14T12:52:09.425Z,22.27
2018-05-14T12:57:09.092Z,19.93
2018-05-14T12:59:37.375Z,19.13
2018-05-14T13:02:05.333Z,20.10
2018-05-14T13:04:35.780Z,19.17
2018-05-14T13:07:03.562Z,19.95
2018-05-14T13:09:31.093Z,23.13
2018-05-14T13:12:00.257Z,23.65
2018-05-14T13:14:27.899Z,22.45
2018-05-14T13:16:55.477Z,22.80
2018-05-14T13:19:22.998Z,22.33
2018-05-14T13:21:50.597Z,22.17
2018-05-14T13:24:30.749Z,22.43
2018-05-14T13:26:58.633Z,23.65
2018-05-14T13:29:26.158Z,24.33
2018-05-14T13:31:53.738Z,24.70
2018-05-14T13:34:22.207Z,23.15
2018-05-14T13:36:52.725Z,24.57
2018-05-14T13:39:21.721Z,24.67
2018-05-14T13:41:49.800Z,23.50
2018-05-14T13:44:17.379Z,24.10
2018-05-14T13:46:45.722Z,24.53
2018-05-14T13:49:14.093Z,23.80
2018-05-14T13:51:41.631Z,24.60
2018-05-14T13:54:09.557Z,24.80
2018-05-14T13:56:37.549Z,25.48
2018-05-14T13:59:05.136Z,26.53
2018-05-14T14:01:33.619Z,28.25
2018-05-14T14:04:01.412Z,28.47
2018-05-14T14:06:29.127Z,25.77
2018-05-14T14:08:57.410Z,25.60
2018-05-14T14:11:25.602Z,24.60
2018-05-14T14:13:53.300Z,27.17
2018-05-14T14:16:21.052Z,25.83
2018-05-14T14:18:49.328Z,26.17
2018-05-14T14:21:17.000Z,27.93
2018-05-14T14:23:44.736Z,27.42
2018-05-14T14:26:12.159Z,28.53
2018-05-14T14:28:39.710Z,26.42
2018-05-14T14:31:07.331Z,24.97
2018-05-14T14:33:34.936Z,28.30
2018-05-14T14:36:02.786Z,29.05
2018-05-14T14:38:30.395Z,29.20
2018-05-14T14:40:57.974Z,29.92
2018-05-14T14:43:25.529Z,31.83
2018-05-14T14:45:53.098Z,32.13
2018-05-14T14:48:20.679Z,28.70
2018-05-14T14:50:48.325Z,28.80
2018-05-14T14:53:15.985Z,30.23
2018-05-14T14:55:44.256Z,32.73
2018-05-14T14:58:11.942Z,27.87
2018-05-14T15:00:39.490Z,24.20
2018-05-14T15:03:07.079Z,27.30
2018-05-14T15:05:35.397Z,28.07
2018-05-14T15:08:03.560Z,26.13
2018-05-14T15:10:31.253Z,25.50
2018-05-14T15:13:00.053Z,24.30
2018-05-14T15:15:27.621Z,24.77
2018-05-14T15:17:55.208Z,24.57
2018-05-14T15:20:22.915Z,23.50
2018-05-14T15:22:50.591Z,25.13
2018-05-14T15:25:18.363Z,25.13
2018-05-14T15:27:45.913Z,22.90
2018-05-14T15:30:13.494Z,23.67
2018-05-14T15:32:41.021Z,23.13
2018-05-14T15:35:08.691Z,21.57
2018-05-14T15:37:36.249Z,23.03
2018-05-14T15:40:03.857Z,23.17
2018-05-14T15:42:31.483Z,23.80
2018-05-14T15:44:59.134Z,23.77
2018-05-14T15:47:26.657Z,24.33
2018-05-14T15:49:54.229Z,23.63
2018-05-14T15:52:21.811Z,20.57
2018-05-14T15:54:49.367Z,21.80
2018-05-14T15:57:16.894Z,20.53
2018-05-14T15:59:44.496Z,22.57
2018-05-14T16:02:12.022Z,21.83
2018-05-14T16:04:39.608Z,23.50
2018-05-14T16:07:10.170Z,23.70
2018-05-14T16:09:37.951Z,22.37
2018-05-14T16:12:05.553Z,25.17
2018-05-14T16:14:33.123Z,26.58
2018-05-14T16:19:37.058Z,30.80
2018-05-14T16:22:04.684Z,28.80
2018-05-14T16:24:32.214Z,28.97
2018-05-14T16:26:59.832Z,29.03
2018-05-14T16:29:27.369Z,33.90
2018-05-14T16:31:54.925Z,32.63
2018-05-14T16:34:23.226Z,33.22
2018-05-14T16:36:50.785Z,33.97
2018-05-14T16:39:18.329Z,36.17
2018-05-14T16:41:45.896Z,35.60
2018-05-14T16:44:13.435Z,36.77
2018-05-14T16:46:42.431Z,36.67
2018-05-14T16:49:09.962Z,35.77
2018-05-14T16:51:37.491Z,35.43
2018-05-14T16:54:05.071Z,33.70
2018-05-14T16:56:32.601Z,37.30
2018-05-14T16:59:00.148Z,33.87
2018-05-14T17:01:27.702Z,11.07
2018-05-14T17:03:56.599Z,18.05
2018-05-14T17:06:24.170Z,17.30
2018-05-14T17:08:51.825Z,16.23
2018-05-14T17:11:19.410Z,20.10
2018-05-14T17:13:47.027Z,22.27
2018-05-14T17:16:14.613Z,23.03
2018-05-14T17:18:42.194Z,21.60
2018-05-14T17:21:09.826Z,24.23
2018-05-14T17:23:37.489Z,23.60
2018-05-14T17:26:05.039Z,26.30
2018-05-14T17:28:32.655Z,24.90
2018-05-14T17:31:00.211Z,28.55
2018-05-14T17:33:27.759Z,30.80
2018-05-14T17:35:55.802Z,31.10
2018-05-14T17:38:23.463Z,35.90
2018-05-14T17:40:51.079Z,33.60
2018-05-14T17:43:18.642Z,30.03
2018-05-14T17:45:46.470Z,35.00
2018-05-14T17:48:14.249Z,35.07
2018-05-14T17:50:41.846Z,33.00
2018-05-14T17:53:11.617Z,33.53
2018-05-14T17:55:39.650Z,35.00
2018-05-14T17:58:07.201Z,34.25
2018-05-14T18:00:34.875Z,34.53
2018-05-14T18:03:02.434Z,63.40
2018-05-14T18:05:41.661Z,39.13
2018-05-14T18:08:09.255Z,36.40
2018-05-14T18:10:39.518Z,37.40
2018-05-14T18:13:07.042Z,36.63
2018-05-14T18:15:34.672Z,39.42
2018-05-14T18:18:02.381Z,35.03
2018-05-14T18:20:29.995Z,37.37
2018-05-14T18:22:57.602Z,33.30
2018-05-14T18:25:30.580Z,29.50
2018-05-14T18:28:11.928Z,34.03
2018-05-14T18:30:39.526Z,31.63
2018-05-14T18:33:11.151Z,26.47
2018-05-14T18:35:44.640Z,27.10
2018-05-14T18:38:14.085Z,28.40
2018-05-14T18:40:41.655Z,28.87
2018-05-14T18:43:09.364Z,28.67
2018-05-14T18:45:36.936Z,26.80
2018-05-14T18:48:04.595Z,25.37
2018-05-14T18:50:32.152Z,22.77
2018-05-14T18:52:59.728Z,21.77
2018-05-14T18:55:27.295Z,16.83
2018-05-14T18:57:55.182Z,12.87
2018-05-14T19:00:22.738Z,12.10
2018-05-14T19:02:52.929Z,13.67
2018-05-14T19:05:20.617Z,15.43
2018-05-14T19:07:48.258Z,16.40
2018-05-14T19:10:21.284Z,16.33
2018-05-14T19:12:50.045Z,21.58
2018-05-14T19:15:23.492Z,20.03
2018-05-14T19:17:57.016Z,20.93
2018-05-14T19:20:24.674Z,22.97
2018-05-14T19:22:57.842Z,22.23
2018-05-14T19:25:25.517Z,23.23
2018-05-14T19:27:59.398Z,21.25
2018-05-14T19:30:27.014Z,21.73
2018-05-14T19:32:54.590Z,23.40
2018-05-14T19:35:27.867Z,21.00
2018-05-14T19:37:55.441Z,22.73
2018-05-14T19:40:28.759Z,21.67
2018-05-14T19:42:56.310Z,23.40
2018-05-14T19:45:24.749Z,22.87
2018-05-14T19:47:52.650Z,23.83
2018-05-14T19:50:20.407Z,21.93
2018-05-14T19:52:47.917Z,35.43
2018-05-14T19:55:17.249Z,26.33
2018-05-14T19:57:44.838Z,20.63
2018-05-14T20:00:12.463Z,18.07
2018-05-14T20:02:40.321Z,18.75
2018-05-14T20:05:07.916Z,19.47
2018-05-14T20:07:39.011Z,19.17
2018-05-14T20:10:07.006Z,17.53
2018-05-14T20:12:34.814Z,17.25
2018-05-14T20:15:02.424Z,17.10
2018-05-14T20:17:30.080Z,17.93
2018-05-14T20:19:57.629Z,19.07
2018-05-14T20:22:25.500Z,19.92
2018-05-14T20:24:53.325Z,20.05
2018-05-14T20:27:21.439Z,21.03
2018-05-14T20:29:49.153Z,17.43
2018-05-14T20:32:17.122Z,16.80
2018-05-14T20:34:44.690Z,16.70
2018-05-14T20:37:15.050Z,15.10
2018-05-14T20:39:44.595Z,16.60
2018-05-14T20:42:13.940Z,20.13
2018-05-14T20:44:42.656Z,19.02
2018-05-14T20:47:10.702Z,19.87
2018-05-14T20:49:39.973Z,17.77
2018-05-14T20:52:08.718Z,19.20
2018-05-14T20:54:37.803Z,17.73
2018-05-14T20:57:06.320Z,18.43
2018-05-14T20:59:34.361Z,19.07
2018-05-14T21:02:03.891Z,19.43
2018-05-14T21:04:31.793Z,18.00
2018-05-14T21:07:01.193Z,19.20
2018-05-14T21:09:30.821Z,18.05
2018-05-14T21:12:00.157Z,17.30
2018-05-14T21:14:27.819Z,15.97
2018-05-14T21:16:56.447Z,17.00
2018-05-14T21:19:24.481Z,18.77
2018-05-14T21:21:53.661Z,21.17
2018-05-14T21:24:22.402Z,20.33
2018-05-14T21:26:50.292Z,20.60
2018-05-14T21:29:17.866Z,20.13
2018-05-14T21:31:45.440Z,17.13
2018-05-14T21:34:13.109Z,16.07
2018-05-14T21:36:40.651Z,15.57
2018-05-14T21:39:10.012Z,15.00
2018-05-14T21:41:38.796Z,15.67
2018-05-14T21:44:07.714Z,16.93
2018-05-14T21:46:35.525Z,16.50
2018-05-14T21:49:03.688Z,17.67
2018-05-14T21:51:32.354Z,18.77
2018-05-14T21:54:00.854Z,17.57
2018-05-14T21:56:31.114Z,18.33
2018-05-14T21:59:01.459Z,17.13
2018-05-14T22:01:30.000Z,16.60
2018-05-14T22:03:59.969Z,14.70
2018-05-14T22:06:27.928Z,15.07
2018-05-14T22:08:56.825Z,17.33
2018-05-14T22:11:24.525Z,17.83
2018-05-14T22:13:52.098Z,19.23
2018-05-14T22:16:19.675Z,19.13
2018-05-14T22:18:47.262Z,18.20
2018-05-14T22:21:14.820Z,16.30
2018-05-14T22:23:42.515Z,18.42
2018-05-14T22:26:10.189Z,17.83
2018-05-14T22:28:37.801Z,18.40
2018-05-14T22:31:05.347Z,17.60
2018-05-14T22:33:32.958Z,16.87
2018-05-14T22:36:00.533Z,16.07
2018-05-14T22:38:28.141Z,14.77
2018-05-14T22:40:55.748Z,15.67
2018-05-14T22:43:23.358Z,16.63
2018-05-14T22:45:50.938Z,20.13
2018-05-14T22:48:18.623Z,18.83
2018-05-14T22:50:46.389Z,18.67
2018-05-14T22:53:14.028Z,16.70
2018-05-14T22:55:41.622Z,19.00
2018-05-14T22:58:09.274Z,20.33
2018-05-14T23:00:36.874Z,17.97
2018-05-14T23:03:04.492Z,19.03
2018-05-14T23:05:32.078Z,16.37
2018-05-14T23:07:59.646Z,15.70
2018-05-14T23:10:27.284Z,16.60
2018-05-14T23:12:54.834Z,15.50
2018-05-14T23:15:22.415Z,16.70
2018-05-14T23:17:50.054Z,15.63
2018-05-14T23:20:17.683Z,18.67
2018-05-14T23:22:45.245Z,16.63
2018-05-14T23:25:12.810Z,16.75
2018-05-14T23:27:40.499Z,15.60
2018-05-14T23:30:08.048Z,20.23
2018-05-14T23:32:35.644Z,18.50
2018-05-14T23:35:03.245Z,18.77
2018-05-14T23:37:30.835Z,21.10
2018-05-14T23:39:58.406Z,16.63
2018-05-14T23:42:26.009Z,16.63
2018-05-14T23:44:53.619Z,17.30
2018-05-14T23:47:21.194Z,17.43
2018-05-14T23:49:48.744Z,16.07
2018-05-14T23:52:16.360Z,16.40
2018-05-14T23:54:43.917Z,16.75
2018-05-14T23:57:11.518Z,15.67
2018-05-14T23:59:39.079Z,16.47
